createdAt,value
2022-09-23T00:01:19.356Z,7.19
2022-09-23T00:03:49.274Z,7.18
2022-09-23T00:06:20.283Z,7.29
2022-09-23T00:08:49.727Z,7.30
2022-09-23T00:11:21.880Z,7.36
2022-09-23T00:13:53.379Z,7.38
2022-09-23T00:16:25.129Z,7.31
2022-09-23T00:18:53.769Z,7.27
2022-09-23T00:21:23.762Z,7.09
2022-09-23T00:23:52.765Z,7.01
2022-09-23T00:26:24.469Z,6.80
2022-09-23T00:28:53.361Z,6.88
2022-09-23T00:31:24.459Z,6.88
2022-09-23T00:33:56.900Z,6.83
2022-09-23T00:36:26.856Z,6.73
2022-09-23T00:38:56.207Z,6.72
2022-09-23T00:41:26.625Z,6.79
2022-09-23T00:43:57.664Z,6.80
2022-09-23T00:46:30.506Z,6.77
2022-09-23T00:49:03.538Z,6.83
2022-09-23T00:51:36.254Z,6.79
2022-09-23T00:54:06.689Z,6.77
2022-09-23T00:56:38.542Z,6.94
2022-09-23T00:59:09.415Z,6.81
2022-09-23T01:01:39.061Z,6.79
2022-09-23T01:04:09.092Z,6.74
2022-09-23T01:06:37.925Z,6.65
2022-09-23T01:09:06.728Z,6.79
2022-09-23T01:11:45.444Z,6.62
2022-09-23T01:14:36.081Z,6.67
2022-09-23T01:17:11.222Z,6.64
2022-09-23T01:20:01.097Z,6.63
2022-09-23T01:22:37.367Z,6.52
2022-09-23T01:25:29.512Z,6.57
2022-09-23T01:28:19.332Z,6.56
2022-09-23T01:30:57.855Z,6.53
2022-09-23T01:33:36.599Z,6.54
2022-09-23T01:36:13.707Z,6.56
2022-09-23T01:38:51.500Z,6.50
2022-09-23T01:41:37.334Z,6.40
2022-09-23T01:44:09.841Z,6.40
2022-09-23T01:46:48.594Z,6.32
2022-09-23T01:49:21.991Z,6.37
2022-09-23T01:51:55.553Z,6.35
2022-09-23T01:54:31.229Z,6.24
2022-09-23T01:57:04.985Z,6.13
2022-09-23T01:59:39.109Z,6.24
2022-09-23T02:02:15.489Z,6.36
2022-09-23T02:04:49.369Z,6.42
2022-09-23T02:07:23.824Z,6.45
2022-09-23T02:09:56.664Z,6.29
2022-09-23T02:12:29.827Z,6.21
2022-09-23T02:15:03.593Z,6.01
2022-09-23T02:17:40.317Z,6.11
2022-09-23T02:20:09.656Z,6.11
2022-09-23T02:22:42.403Z,6.18
2022-09-23T02:25:12.714Z,6.25
2022-09-23T02:27:48.040Z,6.17
2022-09-23T02:30:22.498Z,6.01
2022-09-23T02:33:04.689Z,5.90
2022-09-23T02:35:38.311Z,5.94
2022-09-23T02:38:21.920Z,6.02
2022-09-23T02:40:55.129Z,6.08
2022-09-23T02:43:35.714Z,5.93
2022-09-23T02:46:05.942Z,5.77
2022-09-23T02:48:42.064Z,5.64
2022-09-23T02:51:11.713Z,5.54
2022-09-23T02:53:41.093Z,5.47
2022-09-23T02:56:16.892Z,5.51
2022-09-23T02:58:47.197Z,5.54
2022-09-23T03:01:26.527Z,5.72
2022-09-23T03:04:09.044Z,5.78
2022-09-23T03:06:48.724Z,5.89
2022-09-23T03:09:24.045Z,5.76
2022-09-23T03:12:16.220Z,5.88
2022-09-23T03:14:51.788Z,5.86
2022-09-23T03:17:27.299Z,5.90
2022-09-23T03:20:02.687Z,5.97
2022-09-23T03:22:35.703Z,6.08
2022-09-23T03:25:09.242Z,6.10
2022-09-23T03:27:39.362Z,6.14
2022-09-23T03:30:09.887Z,6.15
2022-09-23T03:32:40.924Z,6.11
2022-09-23T03:35:11.363Z,6.08
2022-09-23T03:37:46.187Z,6.16
2022-09-23T03:40:19.528Z,6.09
2022-09-23T03:42:49.381Z,6.08
2022-09-23T03:45:23.562Z,6.08
2022-09-23T03:47:52.481Z,5.98
2022-09-23T03:50:22.719Z,6.01
2022-09-23T03:52:51.882Z,6.02
2022-09-23T03:55:21.696Z,6.07
2022-09-23T03:57:50.360Z,5.84
2022-09-23T04:00:19.160Z,5.74
2022-09-23T04:02:48.446Z,5.77
2022-09-23T04:05:18.297Z,5.78
2022-09-23T04:07:48.681Z,5.92
2022-09-23T04:10:17.460Z,5.96
2022-09-23T04:12:46.332Z,5.71
2022-09-23T04:15:15.078Z,5.84
2022-09-23T04:17:43.850Z,5.92
2022-09-23T04:20:12.949Z,5.74
2022-09-23T04:22:41.715Z,5.78
2022-09-23T04:25:12.203Z,5.75
2022-09-23T04:27:40.885Z,5.75
2022-09-23T04:30:10.776Z,5.68
2022-09-23T04:32:39.585Z,5.73
2022-09-23T04:35:09.377Z,5.86
2022-09-23T04:37:38.758Z,5.82
2022-09-23T04:40:08.964Z,5.92
2022-09-23T04:42:39.539Z,5.86
2022-09-23T04:45:09.234Z,5.96
2022-09-23T04:47:38.134Z,5.86
2022-09-23T04:50:07.755Z,5.94
2022-09-23T04:52:36.475Z,6.12
2022-09-23T04:55:09.208Z,6.02
2022-09-23T04:57:42.182Z,6.07
2022-09-23T05:00:12.377Z,5.89
2022-09-23T05:02:45.579Z,5.78
2022-09-23T05:05:14.637Z,5.96
2022-09-23T05:07:43.326Z,6.00
2022-09-23T05:10:12.182Z,6.11
2022-09-23T05:12:42.484Z,6.15
2022-09-23T05:15:15.420Z,6.28
2022-09-23T05:17:44.295Z,6.29
2022-09-23T05:20:13.802Z,6.38
2022-09-23T05:22:42.659Z,6.22
2022-09-23T05:25:11.436Z,6.28
2022-09-23T05:27:42.439Z,6.32
2022-09-23T05:30:11.821Z,6.42
2022-09-23T05:32:40.563Z,6.24
2022-09-23T05:35:13.319Z,6.35
2022-09-23T05:37:42.159Z,6.47
2022-09-23T05:40:11.439Z,6.53
2022-09-23T05:42:41.883Z,6.73
2022-09-23T05:45:11.279Z,6.65
2022-09-23T05:47:40.029Z,6.64
2022-09-23T05:50:09.599Z,6.55
2022-09-23T05:52:38.344Z,6.44
2022-09-23T05:55:08.247Z,6.36
2022-09-23T05:57:37.067Z,6.28
2022-09-23T06:00:08.700Z,6.32
2022-09-23T06:02:40.627Z,6.24
2022-09-23T06:05:09.824Z,6.23
2022-09-23T06:07:39.156Z,6.27
2022-09-23T06:10:08.876Z,6.28
2022-09-23T06:12:37.623Z,6.34
2022-09-23T06:15:09.220Z,6.38
2022-09-23T06:17:37.998Z,6.37
2022-09-23T06:20:07.246Z,6.46
2022-09-23T06:22:39.087Z,6.48
2022-09-23T06:25:09.545Z,6.52
2022-09-23T06:27:38.260Z,6.59
2022-09-23T06:30:09.818Z,6.77
2022-09-23T06:32:38.641Z,6.72
2022-09-23T06:35:18.929Z,6.87
2022-09-23T06:37:54.018Z,6.82
2022-09-23T06:40:23.687Z,6.88
2022-09-23T06:42:59.439Z,6.90
2022-09-23T06:45:30.281Z,6.79
2022-09-23T06:47:59.919Z,6.95
2022-09-23T06:50:29.296Z,6.90
2022-09-23T06:52:58.640Z,7.03
2022-09-23T06:55:28.147Z,6.98
2022-09-23T06:57:59.603Z,7.09
2022-09-23T07:00:30.886Z,7.20
2022-09-23T07:02:59.733Z,7.34
2022-09-23T07:05:28.416Z,7.48
2022-09-23T07:07:57.216Z,7.39
2022-09-23T07:10:27.936Z,7.35
2022-09-23T07:12:57.576Z,7.45
2022-09-23T07:15:26.203Z,7.49
2022-09-23T07:17:58.039Z,7.53
2022-09-23T07:20:27.616Z,7.66
2022-09-23T07:22:57.516Z,7.77
2022-09-23T07:25:26.156Z,7.78
2022-09-23T07:27:57.926Z,7.81
2022-09-23T07:30:26.968Z,7.88
2022-09-23T07:32:58.617Z,7.97
2022-09-23T07:35:28.596Z,8.01
2022-09-23T07:37:57.298Z,8.06
2022-09-23T07:40:26.199Z,8.23
2022-09-23T07:42:55.710Z,8.19
2022-09-23T07:45:25.623Z,8.43
2022-09-23T07:47:55.360Z,8.51
2022-09-23T07:50:25.436Z,8.55
2022-09-23T07:52:54.061Z,8.55
2022-09-23T07:55:23.894Z,8.56
2022-09-23T07:57:53.810Z,8.70
2022-09-23T08:00:23.293Z,8.93
2022-09-23T08:02:53.181Z,8.97
2022-09-23T08:05:22.903Z,8.98
2022-09-23T08:07:54.316Z,8.91
2022-09-23T08:10:23.445Z,8.89
2022-09-23T08:12:53.175Z,8.99
2022-09-23T08:15:21.998Z,8.88
2022-09-23T08:17:51.185Z,9.05
2022-09-23T08:20:36.918Z,9.06
2022-09-23T08:23:07.463Z,9.10
2022-09-23T08:25:36.065Z,8.99
2022-09-23T08:28:04.675Z,9.16
2022-09-23T08:30:33.301Z,9.30
2022-09-23T08:33:03.822Z,8.93
2022-09-23T08:35:32.921Z,9.26
2022-09-23T08:38:03.081Z,9.34
2022-09-23T08:40:35.887Z,9.23
2022-09-23T08:43:07.124Z,9.25
2022-09-23T08:45:37.464Z,9.56
2022-09-23T08:48:13.868Z,9.66
2022-09-23T08:50:45.539Z,9.77
2022-09-23T08:53:22.106Z,9.84
2022-09-23T08:55:54.840Z,9.79
2022-09-23T08:58:35.891Z,9.78
2022-09-23T09:01:09.631Z,9.66
2022-09-23T09:03:46.565Z,9.40
2022-09-23T09:06:20.078Z,9.38
2022-09-23T09:08:57.682Z,9.56
2022-09-23T09:11:35.387Z,9.63
2022-09-23T09:14:18.876Z,9.86
2022-09-23T09:17:00.696Z,9.81
2022-09-23T09:19:54.097Z,9.88
2022-09-23T09:22:27.939Z,9.85
2022-09-23T09:25:03.480Z,9.72
2022-09-23T09:27:33.940Z,9.82
2022-09-23T09:30:02.720Z,9.84
2022-09-23T09:32:47.577Z,9.89
2022-09-23T09:35:26.920Z,10.10
2022-09-23T09:37:56.180Z,10.22
2022-09-23T09:40:25.829Z,10.26
2022-09-23T09:42:55.980Z,10.19
2022-09-23T09:45:38.681Z,10.31
2022-09-23T09:48:13.847Z,10.45
2022-09-23T09:50:45.619Z,10.52
2022-09-23T09:53:22.625Z,10.58
2022-09-23T09:56:04.976Z,10.71
2022-09-23T09:58:47.404Z,10.36
2022-09-23T10:01:21.700Z,10.64
2022-09-23T10:03:56.930Z,10.72
2022-09-23T10:06:29.716Z,10.61
2022-09-23T10:09:14.582Z,10.80
2022-09-23T10:11:43.598Z,10.72
2022-09-23T10:14:17.743Z,10.61
2022-09-23T10:16:57.499Z,10.72
2022-09-23T10:19:30.044Z,10.83
2022-09-23T10:22:01.448Z,10.79
2022-09-23T10:24:34.616Z,10.85
2022-09-23T10:27:08.940Z,10.67
2022-09-23T10:29:43.496Z,10.73
2022-09-23T10:32:27.221Z,10.85
2022-09-23T10:34:59.400Z,10.90
2022-09-23T10:37:39.142Z,10.82
2022-09-23T10:40:35.486Z,10.80
2022-09-23T10:43:46.368Z,10.84
2022-09-23T10:46:38.701Z,10.90
2022-09-23T10:49:52.808Z,10.77
2022-09-23T10:52:38.227Z,10.72
2022-09-23T10:55:19.991Z,10.70
2022-09-23T10:58:12.033Z,10.94
2022-09-23T11:00:48.455Z,11.14
2022-09-23T11:04:16.642Z,11.10
2022-09-23T11:07:02.116Z,10.66
2022-09-23T11:09:41.094Z,10.99
2022-09-23T11:12:23.162Z,10.82
2022-09-23T11:15:04.979Z,10.89
2022-09-23T11:18:10.640Z,10.96
2022-09-23T11:20:49.401Z,11.06
2022-09-23T11:23:57.041Z,11.04
2022-09-23T11:26:41.586Z,11.09
2022-09-23T11:29:36.660Z,11.15
2022-09-23T11:32:27.822Z,11.15
2022-09-23T11:35:04.386Z,10.94
2022-09-23T11:37:42.185Z,11.13
2022-09-23T11:40:19.278Z,11.20
2022-09-23T11:42:55.466Z,11.17
2022-09-23T11:45:29.628Z,11.19
2022-09-23T11:48:03.765Z,10.93
2022-09-23T11:50:37.865Z,11.13
2022-09-23T11:53:13.625Z,11.17
2022-09-23T11:55:57.185Z,11.31
2022-09-23T11:58:31.080Z,11.60
2022-09-23T12:01:07.330Z,11.55
2022-09-23T12:03:45.811Z,11.23
2022-09-23T12:06:19.127Z,11.14
2022-09-23T12:08:54.408Z,11.21
2022-09-23T12:11:29.950Z,11.26
2022-09-23T12:14:11.358Z,11.30
2022-09-23T12:16:54.325Z,11.35
2022-09-23T12:19:43.758Z,11.32
2022-09-23T12:22:33.054Z,10.98
2022-09-23T12:25:19.375Z,10.80
2022-09-23T12:27:51.359Z,10.70
2022-09-23T12:30:22.013Z,10.79
2022-09-23T12:32:50.976Z,10.94
2022-09-23T12:35:23.816Z,10.67
2022-09-23T12:37:54.261Z,10.77
2022-09-23T12:40:30.480Z,10.72
2022-09-23T12:43:01.382Z,10.77
2022-09-23T12:45:39.523Z,10.83
2022-09-23T12:48:43.718Z,10.87
2022-09-23T12:51:20.467Z,10.96
2022-09-23T12:54:26.029Z,10.77
2022-09-23T12:57:11.727Z,10.88
2022-09-23T13:00:00.996Z,10.85
2022-09-23T13:02:34.184Z,10.80
2022-09-23T13:05:39.220Z,10.70
2022-09-23T13:08:13.907Z,10.62
2022-09-23T13:10:50.053Z,10.76
2022-09-23T13:13:31.903Z,10.75
2022-09-23T13:16:14.777Z,10.72
2022-09-23T13:18:54.729Z,10.66
2022-09-23T13:22:03.030Z,10.82
2022-09-23T13:24:42.249Z,10.81
2022-09-23T13:27:26.792Z,10.73
2022-09-23T13:30:02.311Z,10.63
2022-09-23T13:32:34.368Z,10.73
2022-09-23T13:35:06.684Z,10.62
2022-09-23T13:37:45.213Z,10.75
2022-09-23T13:40:24.068Z,10.83
2022-09-23T13:42:58.689Z,10.93
2022-09-23T13:45:31.240Z,10.82
2022-09-23T13:48:04.563Z,10.80
2022-09-23T13:50:35.193Z,10.86
2022-09-23T13:53:10.038Z,10.88
2022-09-23T13:55:41.226Z,10.89
2022-09-23T13:58:18.833Z,10.82
2022-09-23T14:00:50.927Z,10.85
2022-09-23T14:03:26.131Z,10.83
2022-09-23T14:05:56.845Z,10.90
2022-09-23T14:08:26.231Z,11.02
2022-09-23T14:10:55.835Z,10.72
2022-09-23T14:13:27.530Z,10.98
2022-09-23T14:16:00.231Z,11.03
2022-09-23T14:18:38.118Z,11.05
2022-09-23T14:21:07.740Z,10.90
2022-09-23T14:23:36.722Z,11.00
2022-09-23T14:26:06.538Z,10.98
2022-09-23T14:28:35.781Z,11.00
2022-09-23T14:31:06.739Z,10.71
2022-09-23T14:33:40.832Z,10.80
2022-09-23T14:36:31.710Z,10.68
2022-09-23T14:39:03.152Z,10.61
2022-09-23T14:41:38.834Z,10.51
2022-09-23T14:44:09.351Z,10.69
2022-09-23T14:46:40.369Z,10.55
2022-09-23T14:49:17.774Z,10.59
2022-09-23T14:51:50.619Z,10.53
2022-09-23T14:54:38.937Z,10.57
2022-09-23T14:57:27.335Z,10.66
2022-09-23T15:00:00.068Z,10.67
2022-09-23T15:02:35.954Z,10.58
2022-09-23T15:05:22.338Z,10.64
2022-09-23T15:07:52.960Z,10.61
2022-09-23T15:10:24.887Z,10.52
2022-09-23T15:12:55.108Z,10.50
2022-09-23T15:15:29.448Z,10.50
2022-09-23T15:18:06.004Z,10.34
2022-09-23T15:20:35.705Z,10.20
2022-09-23T15:23:04.365Z,10.10
2022-09-23T15:25:35.663Z,10.18
2022-09-23T15:28:19.139Z,10.15
2022-09-23T15:30:47.842Z,9.91
2022-09-23T15:33:18.175Z,9.63
2022-09-23T15:35:49.721Z,9.51
2022-09-23T15:38:18.974Z,9.34
2022-09-23T15:40:47.893Z,9.16
2022-09-23T15:43:21.698Z,8.99
2022-09-23T15:45:53.442Z,8.96
2022-09-23T15:48:26.734Z,8.89
2022-09-23T15:50:56.212Z,8.78
2022-09-23T15:53:26.586Z,8.77
2022-09-23T15:55:55.857Z,8.82
2022-09-23T15:58:26.256Z,8.73
2022-09-23T16:00:57.265Z,8.71
2022-09-23T16:03:29.786Z,8.88
2022-09-23T16:06:02.546Z,8.82
2022-09-23T16:08:33.266Z,8.95
2022-09-23T16:11:02.342Z,8.83
2022-09-23T16:13:30.996Z,8.95
2022-09-23T16:16:00.333Z,9.00
2022-09-23T16:18:30.715Z,8.97
2022-09-23T16:21:00.146Z,8.88
2022-09-23T16:23:37.272Z,8.67
2022-09-23T16:26:09.206Z,8.61
2022-09-23T16:28:39.107Z,8.20
2022-09-23T16:31:08.192Z,7.66
2022-09-23T16:33:38.394Z,7.43
2022-09-23T16:36:10.865Z,7.34
2022-09-23T16:38:40.936Z,7.17
2022-09-23T16:41:09.984Z,7.39
2022-09-23T16:43:41.076Z,7.61
2022-09-23T16:46:09.483Z,7.56
2022-09-23T16:48:40.776Z,7.56
2022-09-23T16:51:10.290Z,7.59
2022-09-23T16:53:39.426Z,7.64
2022-09-23T16:56:09.855Z,7.74
2022-09-23T16:58:39.344Z,7.74
2022-09-23T17:01:26.561Z,7.65
2022-09-23T17:03:56.784Z,7.35
2022-09-23T17:06:28.088Z,7.42
2022-09-23T17:08:57.125Z,7.42
2022-09-23T17:11:25.753Z,7.41
2022-09-23T17:13:54.473Z,7.26
2022-09-23T17:16:28.546Z,7.33
2022-09-23T17:18:59.614Z,7.39
2022-09-23T17:21:28.835Z,7.31
2022-09-23T17:23:58.498Z,7.29
2022-09-23T17:26:28.868Z,7.20
2022-09-23T17:28:58.921Z,7.19
2022-09-23T17:31:27.892Z,6.83
2022-09-23T17:33:58.075Z,6.86
2022-09-23T17:36:27.515Z,6.83
2022-09-23T17:38:56.328Z,6.65
2022-09-23T17:41:24.929Z,6.49
2022-09-23T17:44:00.710Z,6.67
2022-09-23T17:46:30.369Z,6.74
2022-09-23T17:49:00.513Z,6.72
2022-09-23T17:51:29.341Z,6.57
2022-09-23T17:53:57.909Z,6.39
2022-09-23T17:56:30.094Z,6.32
2022-09-23T17:59:01.846Z,6.31
2022-09-23T18:01:31.168Z,6.08
2022-09-23T18:04:05.802Z,5.76
2022-09-23T18:06:36.865Z,5.31
2022-09-23T18:09:07.128Z,5.17
2022-09-23T18:11:38.550Z,5.45
2022-09-23T18:14:09.613Z,5.71
2022-09-23T18:16:39.831Z,5.74
2022-09-23T18:19:14.292Z,5.91
2022-09-23T18:21:45.389Z,5.96
2022-09-23T18:24:31.966Z,6.06
2022-09-23T18:27:02.201Z,6.00
2022-09-23T18:29:31.849Z,5.97
2022-09-23T18:32:01.811Z,5.96
2022-09-23T18:34:32.067Z,5.98
2022-09-23T18:37:01.286Z,6.03
2022-09-23T18:39:30.227Z,5.97
2022-09-23T18:41:59.009Z,5.76
2022-09-23T18:44:27.628Z,5.73
2022-09-23T18:46:56.609Z,5.70
2022-09-23T18:49:42.574Z,5.61
2022-09-23T18:52:12.675Z,5.34
2022-09-23T18:54:41.165Z,5.23
2022-09-23T18:57:09.689Z,5.05
2022-09-23T18:59:38.234Z,5.11
2022-09-23T19:02:06.746Z,5.29
2022-09-23T19:04:35.468Z,5.38
2022-09-23T19:07:04.267Z,5.42
2022-09-23T19:09:35.126Z,5.45
2022-09-23T19:12:04.109Z,5.51
2022-09-23T19:14:33.366Z,5.36
2022-09-23T19:17:05.408Z,5.14
2022-09-23T19:19:34.069Z,4.56
2022-09-23T19:22:02.948Z,4.13
2022-09-23T19:24:31.666Z,3.89
2022-09-23T19:27:03.361Z,4.01
2022-09-23T19:29:32.106Z,4.15
2022-09-23T19:32:02.345Z,3.90
2022-09-23T19:34:31.388Z,4.17
2022-09-23T19:37:00.521Z,4.27
2022-09-23T19:39:31.916Z,4.11
2022-09-23T19:42:02.033Z,3.85
2022-09-23T19:44:33.268Z,4.26
2022-09-23T19:47:01.957Z,4.33
2022-09-23T19:49:31.428Z,4.34
2022-09-23T19:52:00.888Z,4.16
2022-09-23T19:54:29.667Z,4.22
2022-09-23T19:56:58.476Z,4.16
2022-09-23T19:59:28.405Z,4.28
2022-09-23T20:01:59.540Z,4.40
2022-09-23T20:04:28.526Z,4.27
2022-09-23T20:06:57.265Z,4.46
2022-09-23T20:09:28.025Z,4.42
2022-09-23T20:11:57.446Z,4.04
2022-09-23T20:14:27.547Z,4.17
2022-09-23T20:16:56.494Z,4.27
2022-09-23T20:19:26.734Z,4.34
2022-09-23T20:22:09.200Z,4.36
2022-09-23T20:24:37.867Z,4.49
2022-09-23T20:27:11.358Z,4.54
2022-09-23T20:29:40.071Z,4.50
2022-09-23T20:32:10.020Z,4.39
2022-09-23T20:34:43.022Z,4.39
2022-09-23T20:37:12.260Z,4.20
2022-09-23T20:39:40.942Z,4.25
2022-09-23T20:42:09.742Z,4.13
2022-09-23T20:44:38.502Z,4.22
2022-09-23T20:47:07.317Z,4.25
2022-09-23T20:49:36.639Z,4.20
2022-09-23T20:52:06.719Z,4.27
2022-09-23T20:54:39.009Z,4.31
2022-09-23T20:57:08.761Z,4.11
2022-09-23T20:59:37.942Z,4.12
2022-09-23T21:02:08.160Z,4.05
2022-09-23T21:04:36.901Z,4.07
2022-09-23T21:07:07.444Z,4.13
2022-09-23T21:09:36.199Z,4.07
2022-09-23T21:12:05.080Z,3.74
2022-09-23T21:14:33.854Z,3.79
2022-09-23T21:17:03.200Z,3.70
2022-09-23T21:19:32.024Z,3.74
2022-09-23T21:22:00.701Z,3.80
2022-09-23T21:25:25.692Z,3.78
2022-09-23T21:27:19.685Z,3.73
2022-09-23T21:29:48.299Z,3.75
2022-09-23T21:32:17.018Z,3.26
2022-09-23T21:34:45.961Z,3.43
2022-09-23T21:37:14.780Z,3.55
2022-09-23T21:40:05.356Z,3.59
2022-09-23T21:42:34.302Z,3.40
2022-09-23T21:45:02.925Z,3.42
2022-09-23T21:47:32.673Z,3.37
2022-09-23T21:50:01.587Z,3.38
2022-09-23T21:52:30.341Z,3.29
2022-09-23T21:55:00.387Z,2.98
2022-09-23T21:57:31.555Z,2.55
2022-09-23T21:59:59.984Z,2.58
2022-09-23T22:02:28.962Z,2.83
2022-09-23T22:04:57.663Z,2.96
2022-09-23T22:07:26.843Z,3.15
2022-09-23T22:09:55.407Z,2.92
2022-09-23T22:12:25.650Z,2.99
2022-09-23T22:14:54.264Z,2.90
2022-09-23T22:17:23.261Z,2.92
2022-09-23T22:19:51.781Z,3.06
2022-09-23T22:22:20.365Z,2.94
2022-09-23T22:24:49.864Z,2.70
2022-09-23T22:27:20.709Z,2.83
2022-09-23T22:30:08.356Z,2.30
2022-09-23T22:32:43.662Z,2.11
2022-09-23T22:35:13.927Z,1.81
2022-09-23T22:37:42.512Z,1.57
2022-09-23T22:40:14.414Z,1.18
2022-09-23T22:42:44.131Z,1.07
2022-09-23T22:45:15.075Z,1.49
2022-09-23T22:47:45.739Z,1.77
2022-09-23T22:50:15.410Z,1.86
2022-09-23T22:52:44.365Z,1.97
2022-09-23T22:55:13.648Z,1.91
2022-09-23T22:57:42.357Z,2.04
2022-09-23T23:00:12.836Z,2.16
2022-09-23T23:02:42.880Z,2.19
2022-09-23T23:05:11.954Z,2.39
2022-09-23T23:07:40.753Z,2.49
2022-09-23T23:10:10.467Z,2.59
2022-09-23T23:12:40.267Z,2.70
2022-09-23T23:15:10.797Z,2.72
2022-09-23T23:17:40.678Z,2.82
2022-09-23T23:20:11.538Z,2.82
2022-09-23T23:22:40.236Z,2.72
2022-09-23T23:25:09.895Z,2.23
2022-09-23T23:27:38.735Z,1.96
2022-09-23T23:30:08.534Z,2.12
2022-09-23T23:32:37.177Z,2.23
2022-09-23T23:35:06.470Z,2.10
2022-09-23T23:37:36.503Z,1.97
2022-09-23T23:40:05.417Z,1.84
2022-09-23T23:42:34.867Z,1.46
2022-09-23T23:45:03.498Z,1.57
2022-09-23T23:47:32.089Z,1.56
2022-09-23T23:50:00.750Z,1.55
2022-09-23T23:52:29.373Z,1.65
2022-09-23T23:54:59.543Z,1.75
2022-09-23T23:57:29.625Z,1.69
2022-09-23T23:59:58.498Z,1.45
